sensor_id;sensor_type;location;lat;lon;timestamp;P1;durP1;ratioP1;P2;durP2;ratioP2
71236;SDS011;58984;51.960;5.582;2023-02-28T00:01:30;10.73;;;5.95;;
71236;SDS011;58984;51.960;5.582;2023-02-28T00:03:56;7.57;;;5.85;;
71236;SDS011;58984;51.960;5.582;2023-02-28T00:06:22;7.75;;;5.85;;
71236;SDS011;58984;51.960;5.582;2023-02-28T00:08:49;8.93;;;5.95;;
71236;SDS011;58984;51.960;5.582;2023-02-28T00:11:14;7.53;;;5.45;;
71236;SDS011;58984;51.960;5.582;2023-02-28T00:13:42;10.27;;;5.53;;
71236;SDS011;58984;51.960;5.582;2023-02-28T00:16:12;10.65;;;5.70;;
71236;SDS011;58984;51.960;5.582;2023-02-28T00:18:40;8.25;;;5.38;;
71236;SDS011;58984;51.960;5.582;2023-02-28T00:21:06;6.15;;;5.47;;
71236;SDS011;58984;51.960;5.582;2023-02-28T00:23:33;8.80;;;5.82;;
71236;SDS011;58984;51.960;5.582;2023-02-28T00:25:59;8.18;;;5.82;;
71236;SDS011;58984;51.960;5.582;2023-02-28T00:28:24;11.23;;;5.28;;
71236;SDS011;58984;51.960;5.582;2023-02-28T00:30:50;8.48;;;5.50;;
71236;SDS011;58984;51.960;5.582;2023-02-28T00:33:16;7.63;;;5.32;;
71236;SDS011;58984;51.960;5.582;2023-02-28T00:35:41;8.85;;;5.05;;
71236;SDS011;58984;51.960;5.582;2023-02-28T00:38:08;8.50;;;5.25;;
71236;SDS011;58984;51.960;5.582;2023-02-28T00:40:34;7.45;;;5.57;;
71236;SDS011;58984;51.960;5.582;2023-02-28T00:42:59;10.18;;;5.82;;
71236;SDS011;58984;51.960;5.582;2023-02-28T00:45:25;8.20;;;5.65;;
71236;SDS011;58984;51.960;5.582;2023-02-28T00:47:50;8.70;;;5.35;;
71236;SDS011;58984;51.960;5.582;2023-02-28T00:50:19;6.60;;;5.97;;
71236;SDS011;58984;51.960;5.582;2023-02-28T00:52:45;11.57;;;5.90;;
71236;SDS011;58984;51.960;5.582;2023-02-28T00:55:11;8.23;;;5.65;;
71236;SDS011;58984;51.960;5.582;2023-02-28T00:57:37;6.10;;;5.30;;
71236;SDS011;58984;51.960;5.582;2023-02-28T01:00:03;6.85;;;5.47;;
71236;SDS011;58984;51.960;5.582;2023-02-28T01:02:30;8.90;;;5.18;;
71236;SDS011;58984;51.960;5.582;2023-02-28T01:04:55;8.77;;;5.70;;
71236;SDS011;58984;51.960;5.582;2023-02-28T01:07:22;6.72;;;5.78;;
71236;SDS011;58984;51.960;5.582;2023-02-28T01:09:48;10.25;;;5.68;;
71236;SDS011;58984;51.960;5.582;2023-02-28T01:12:13;10.68;;;5.93;;
71236;SDS011;58984;51.960;5.582;2023-02-28T01:14:40;8.27;;;5.35;;
71236;SDS011;58984;51.960;5.582;2023-02-28T01:17:05;6.70;;;4.85;;
71236;SDS011;58984;51.960;5.582;2023-02-28T01:19:31;10.10;;;5.60;;
71236;SDS011;58984;51.960;5.582;2023-02-28T01:21:56;6.53;;;5.38;;
71236;SDS011;58984;51.960;5.582;2023-02-28T01:24:25;7.97;;;5.43;;
71236;SDS011;58984;51.960;5.582;2023-02-28T01:26:50;7.28;;;5.10;;
71236;SDS011;58984;51.960;5.582;2023-02-28T01:29:16;9.20;;;5.55;;
71236;SDS011;58984;51.960;5.582;2023-02-28T01:31:41;11.70;;;5.55;;
71236;SDS011;58984;51.960;5.582;2023-02-28T01:34:07;7.53;;;5.65;;
71236;SDS011;58984;51.960;5.582;2023-02-28T01:36:32;7.70;;;5.50;;
71236;SDS011;58984;51.960;5.582;2023-02-28T01:38:58;15.98;;;6.35;;
71236;SDS011;58984;51.960;5.582;2023-02-28T01:41:25;9.35;;;5.85;;
71236;SDS011;58984;51.960;5.582;2023-02-28T01:46:20;7.80;;;5.80;;
71236;SDS011;58984;51.960;5.582;2023-02-28T01:49:00;8.95;;;5.88;;
71236;SDS011;58984;51.960;5.582;2023-02-28T01:51:46;8.63;;;6.18;;
71236;SDS011;58984;51.960;5.582;2023-02-28T01:54:18;8.35;;;5.78;;
71236;SDS011;58984;51.960;5.582;2023-02-28T01:56:54;9.23;;;6.00;;
71236;SDS011;58984;51.960;5.582;2023-02-28T01:59:29;11.60;;;5.78;;
71236;SDS011;58984;51.960;5.582;2023-02-28T02:01:59;7.65;;;5.70;;
71236;SDS011;58984;51.960;5.582;2023-02-28T02:04:26;9.60;;;5.90;;
71236;SDS011;58984;51.960;5.582;2023-02-28T02:06:57;11.10;;;6.50;;
71236;SDS011;58984;51.960;5.582;2023-02-28T02:09:23;9.35;;;5.57;;
71236;SDS011;58984;51.960;5.582;2023-02-28T02:11:49;7.82;;;5.80;;
71236;SDS011;58984;51.960;5.582;2023-02-28T02:14:52;8.00;;;5.90;;
71236;SDS011;58984;51.960;5.582;2023-02-28T02:17:29;9.98;;;6.20;;
71236;SDS011;58984;51.960;5.582;2023-02-28T02:33:01;7.70;;;5.55;;
71236;SDS011;58984;51.960;5.582;2023-02-28T02:35:42;7.32;;;5.63;;
71236;SDS011;58984;51.960;5.582;2023-02-28T02:41:13;8.18;;;5.55;;
71236;SDS011;58984;51.960;5.582;2023-02-28T02:43:48;7.20;;;5.38;;
71236;SDS011;58984;51.960;5.582;2023-02-28T02:46:23;8.10;;;5.83;;
71236;SDS011;58984;51.960;5.582;2023-02-28T02:48:54;8.32;;;5.45;;
71236;SDS011;58984;51.960;5.582;2023-02-28T02:51:23;8.52;;;5.22;;
71236;SDS011;58984;51.960;5.582;2023-02-28T02:53:50;8.30;;;5.18;;
71236;SDS011;58984;51.960;5.582;2023-02-28T02:56:21;9.20;;;5.70;;
71236;SDS011;58984;51.960;5.582;2023-02-28T02:58:50;7.25;;;5.75;;
71236;SDS011;58984;51.960;5.582;2023-02-28T03:01:21;6.13;;;5.20;;
71236;SDS011;58984;51.960;5.582;2023-02-28T03:03:55;6.35;;;5.20;;
71236;SDS011;58984;51.960;5.582;2023-02-28T03:06:35;6.57;;;5.30;;
71236;SDS011;58984;51.960;5.582;2023-02-28T03:09:01;7.78;;;5.60;;
71236;SDS011;58984;51.960;5.582;2023-02-28T03:11:27;8.18;;;5.10;;
71236;SDS011;58984;51.960;5.582;2023-02-28T03:17:00;8.50;;;5.38;;
71236;SDS011;58984;51.960;5.582;2023-02-28T03:27:40;6.82;;;5.18;;
71236;SDS011;58984;51.960;5.582;2023-02-28T03:30:14;8.60;;;5.68;;
71236;SDS011;58984;51.960;5.582;2023-02-28T03:32:43;10.30;;;5.75;;
71236;SDS011;58984;51.960;5.582;2023-02-28T03:35:32;9.60;;;5.38;;
71236;SDS011;58984;51.960;5.582;2023-02-28T03:38:08;6.82;;;5.03;;
71236;SDS011;58984;51.960;5.582;2023-02-28T03:40:40;10.30;;;5.28;;
71236;SDS011;58984;51.960;5.582;2023-02-28T03:43:14;8.65;;;5.68;;
71236;SDS011;58984;51.960;5.582;2023-02-28T03:45:45;8.07;;;6.23;;
71236;SDS011;58984;51.960;5.582;2023-02-28T03:48:13;6.80;;;6.10;;
71236;SDS011;58984;51.960;5.582;2023-02-28T03:50:44;9.88;;;5.57;;
71236;SDS011;58984;51.960;5.582;2023-02-28T03:53:15;7.80;;;5.50;;
71236;SDS011;58984;51.960;5.582;2023-02-28T03:58:37;8.48;;;5.78;;
71236;SDS011;58984;51.960;5.582;2023-02-28T04:01:07;8.05;;;5.18;;
71236;SDS011;58984;51.960;5.582;2023-02-28T04:03:37;7.47;;;6.15;;
71236;SDS011;58984;51.960;5.582;2023-02-28T04:06:04;7.97;;;5.90;;
71236;SDS011;58984;51.960;5.582;2023-02-28T04:08:32;7.85;;;5.68;;
71236;SDS011;58984;51.960;5.582;2023-02-28T04:11:05;9.13;;;5.78;;
71236;SDS011;58984;51.960;5.582;2023-02-28T04:13:39;7.13;;;5.53;;
71236;SDS011;58984;51.960;5.582;2023-02-28T04:16:08;10.68;;;5.60;;
71236;SDS011;58984;51.960;5.582;2023-02-28T04:18:41;5.50;;;4.95;;
71236;SDS011;58984;51.960;5.582;2023-02-28T04:21:10;7.18;;;5.03;;
71236;SDS011;58984;51.960;5.582;2023-02-28T04:23:36;7.20;;;5.40;;
71236;SDS011;58984;51.960;5.582;2023-02-28T04:26:02;9.20;;;6.13;;
71236;SDS011;58984;51.960;5.582;2023-02-28T04:28:30;7.82;;;5.43;;
71236;SDS011;58984;51.960;5.582;2023-02-28T04:31:02;6.65;;;5.15;;
71236;SDS011;58984;51.960;5.582;2023-02-28T04:33:30;8.43;;;5.07;;
71236;SDS011;58984;51.960;5.582;2023-02-28T04:36:04;8.90;;;5.00;;
71236;SDS011;58984;51.960;5.582;2023-02-28T04:38:32;4.72;;;4.05;;
71236;SDS011;58984;51.960;5.582;2023-02-28T04:40:59;6.20;;;4.32;;
71236;SDS011;58984;51.960;5.582;2023-02-28T04:43:26;5.18;;;4.00;;
71236;SDS011;58984;51.960;5.582;2023-02-28T04:45:52;7.32;;;4.63;;
71236;SDS011;58984;51.960;5.582;2023-02-28T04:48:21;4.22;;;3.80;;
71236;SDS011;58984;51.960;5.582;2023-02-28T04:50:51;5.35;;;3.60;;
71236;SDS011;58984;51.960;5.582;2023-02-28T04:53:16;4.53;;;3.35;;
71236;SDS011;58984;51.960;5.582;2023-02-28T04:55:43;6.72;;;3.60;;
71236;SDS011;58984;51.960;5.582;2023-02-28T04:58:09;3.40;;;3.10;;
71236;SDS011;58984;51.960;5.582;2023-02-28T05:00:34;7.00;;;3.63;;
71236;SDS011;58984;51.960;5.582;2023-02-28T05:03:00;6.68;;;3.40;;
71236;SDS011;58984;51.960;5.582;2023-02-28T05:05:26;3.90;;;3.35;;
71236;SDS011;58984;51.960;5.582;2023-02-28T05:07:51;3.35;;;2.85;;
71236;SDS011;58984;51.960;5.582;2023-02-28T05:10:18;3.85;;;2.83;;
71236;SDS011;58984;51.960;5.582;2023-02-28T05:12:44;5.50;;;3.65;;
71236;SDS011;58984;51.960;5.582;2023-02-28T05:15:13;6.00;;;3.08;;
71236;SDS011;58984;51.960;5.582;2023-02-28T05:17:40;3.97;;;3.10;;
71236;SDS011;58984;51.960;5.582;2023-02-28T05:20:06;5.82;;;3.08;;
71236;SDS011;58984;51.960;5.582;2023-02-28T05:22:35;4.47;;;2.75;;
71236;SDS011;58984;51.960;5.582;2023-02-28T05:25:01;3.50;;;3.20;;
71236;SDS011;58984;51.960;5.582;2023-02-28T05:27:28;3.17;;;2.83;;
71236;SDS011;58984;51.960;5.582;2023-02-28T05:29:53;6.10;;;3.53;;
71236;SDS011;58984;51.960;5.582;2023-02-28T05:32:19;4.03;;;3.15;;
71236;SDS011;58984;51.960;5.582;2023-02-28T05:34:44;3.05;;;2.67;;
71236;SDS011;58984;51.960;5.582;2023-02-28T05:37:13;4.03;;;2.90;;
71236;SDS011;58984;51.960;5.582;2023-02-28T05:39:40;4.32;;;3.30;;
71236;SDS011;58984;51.960;5.582;2023-02-28T05:42:06;3.58;;;2.85;;
71236;SDS011;58984;51.960;5.582;2023-02-28T05:44:32;3.35;;;2.92;;
71236;SDS011;58984;51.960;5.582;2023-02-28T05:46:58;3.47;;;3.05;;
71236;SDS011;58984;51.960;5.582;2023-02-28T05:49:23;5.05;;;3.17;;
71236;SDS011;58984;51.960;5.582;2023-02-28T05:51:49;3.83;;;3.00;;
71236;SDS011;58984;51.960;5.582;2023-02-28T05:54:14;4.78;;;3.45;;
71236;SDS011;58984;51.960;5.582;2023-02-28T05:56:40;4.45;;;3.60;;
71236;SDS011;58984;51.960;5.582;2023-02-28T05:59:09;4.45;;;3.42;;
71236;SDS011;58984;51.960;5.582;2023-02-28T06:01:36;3.90;;;3.47;;
71236;SDS011;58984;51.960;5.582;2023-02-28T06:04:04;4.95;;;3.22;;
71236;SDS011;58984;51.960;5.582;2023-02-28T06:06:31;5.15;;;3.53;;
71236;SDS011;58984;51.960;5.582;2023-02-28T06:08:59;3.97;;;3.58;;
71236;SDS011;58984;51.960;5.582;2023-02-28T06:11:25;5.88;;;3.47;;
71236;SDS011;58984;51.960;5.582;2023-02-28T06:13:55;4.47;;;3.40;;
71236;SDS011;58984;51.960;5.582;2023-02-28T06:16:24;4.97;;;3.63;;
71236;SDS011;58984;51.960;5.582;2023-02-28T06:18:51;8.23;;;3.75;;
71236;SDS011;58984;51.960;5.582;2023-02-28T06:21:17;7.28;;;3.92;;
71236;SDS011;58984;51.960;5.582;2023-02-28T06:23:43;6.57;;;4.13;;
71236;SDS011;58984;51.960;5.582;2023-02-28T06:26:09;4.82;;;3.58;;
71236;SDS011;58984;51.960;5.582;2023-02-28T06:28:35;7.45;;;4.18;;
71236;SDS011;58984;51.960;5.582;2023-02-28T06:31:11;8.55;;;3.60;;
71236;SDS011;58984;51.960;5.582;2023-02-28T06:33:38;5.82;;;4.07;;
71236;SDS011;58984;51.960;5.582;2023-02-28T06:36:05;6.30;;;4.20;;
71236;SDS011;58984;51.960;5.582;2023-02-28T06:38:32;5.32;;;3.90;;
71236;SDS011;58984;51.960;5.582;2023-02-28T06:40:58;7.57;;;4.00;;
71236;SDS011;58984;51.960;5.582;2023-02-28T06:43:25;6.38;;;3.80;;
71236;SDS011;58984;51.960;5.582;2023-02-28T06:45:54;4.97;;;4.20;;
71236;SDS011;58984;51.960;5.582;2023-02-28T06:48:21;7.80;;;4.70;;
71236;SDS011;58984;51.960;5.582;2023-02-28T06:50:47;4.97;;;4.38;;
71236;SDS011;58984;51.960;5.582;2023-02-28T06:53:12;7.63;;;4.70;;
71236;SDS011;58984;51.960;5.582;2023-02-28T06:55:38;8.75;;;4.38;;
71236;SDS011;58984;51.960;5.582;2023-02-28T06:58:04;6.38;;;4.22;;
71236;SDS011;58984;51.960;5.582;2023-02-28T07:00:40;6.22;;;4.20;;
71236;SDS011;58984;51.960;5.582;2023-02-28T07:03:06;5.75;;;4.38;;
71236;SDS011;58984;51.960;5.582;2023-02-28T07:05:34;7.25;;;4.43;;
71236;SDS011;58984;51.960;5.582;2023-02-28T07:08:00;6.90;;;4.50;;
71236;SDS011;58984;51.960;5.582;2023-02-28T07:10:26;6.43;;;4.22;;
71236;SDS011;58984;51.960;5.582;2023-02-28T07:12:51;6.60;;;4.43;;
71236;SDS011;58984;51.960;5.582;2023-02-28T07:15:17;5.72;;;4.70;;
71236;SDS011;58984;51.960;5.582;2023-02-28T07:17:43;5.43;;;4.32;;
71236;SDS011;58984;51.960;5.582;2023-02-28T07:20:08;6.95;;;4.25;;
71236;SDS011;58984;51.960;5.582;2023-02-28T07:22:34;10.88;;;4.80;;
71236;SDS011;58984;51.960;5.582;2023-02-28T07:25:00;9.15;;;4.95;;
71236;SDS011;58984;51.960;5.582;2023-02-28T07:27:26;6.35;;;4.63;;
71236;SDS011;58984;51.960;5.582;2023-02-28T07:29:51;6.65;;;4.63;;
71236;SDS011;58984;51.960;5.582;2023-02-28T07:32:17;8.13;;;4.43;;
71236;SDS011;58984;51.960;5.582;2023-02-28T07:34:44;9.10;;;4.75;;
71236;SDS011;58984;51.960;5.582;2023-02-28T07:37:09;5.20;;;4.05;;
71236;SDS011;58984;51.960;5.582;2023-02-28T07:39:35;5.57;;;4.15;;
71236;SDS011;58984;51.960;5.582;2023-02-28T07:42:04;5.97;;;3.97;;
71236;SDS011;58984;51.960;5.582;2023-02-28T07:44:31;6.30;;;4.35;;
71236;SDS011;58984;51.960;5.582;2023-02-28T07:46:56;4.60;;;4.00;;
71236;SDS011;58984;51.960;5.582;2023-02-28T07:49:23;7.32;;;4.45;;
71236;SDS011;58984;51.960;5.582;2023-02-28T07:51:48;5.20;;;3.83;;
71236;SDS011;58984;51.960;5.582;2023-02-28T07:54:14;6.75;;;4.28;;
71236;SDS011;58984;51.960;5.582;2023-02-28T07:56:39;6.00;;;4.25;;
71236;SDS011;58984;51.960;5.582;2023-02-28T07:59:05;6.88;;;4.30;;
71236;SDS011;58984;51.960;5.582;2023-02-28T08:01:30;7.97;;;5.30;;
71236;SDS011;58984;51.960;5.582;2023-02-28T08:03:56;6.57;;;4.50;;
71236;SDS011;58984;51.960;5.582;2023-02-28T08:06:22;5.53;;;4.28;;
71236;SDS011;58984;51.960;5.582;2023-02-28T08:08:49;8.57;;;4.70;;
71236;SDS011;58984;51.960;5.582;2023-02-28T08:11:16;11.23;;;4.15;;
71236;SDS011;58984;51.960;5.582;2023-02-28T08:13:43;9.13;;;4.30;;
71236;SDS011;58984;51.960;5.582;2023-02-28T08:16:09;7.65;;;4.25;;
71236;SDS011;58984;51.960;5.582;2023-02-28T08:18:36;6.20;;;3.75;;
71236;SDS011;58984;51.960;5.582;2023-02-28T08:21:08;4.80;;;3.92;;
71236;SDS011;58984;51.960;5.582;2023-02-28T08:23:34;6.10;;;4.53;;
71236;SDS011;58984;51.960;5.582;2023-02-28T08:26:00;6.18;;;5.07;;
71236;SDS011;58984;51.960;5.582;2023-02-28T08:28:26;6.07;;;4.18;;
71236;SDS011;58984;51.960;5.582;2023-02-28T08:30:52;6.05;;;3.85;;
71236;SDS011;58984;51.960;5.582;2023-02-28T08:33:18;4.60;;;3.30;;
71236;SDS011;58984;51.960;5.582;2023-02-28T08:35:44;3.38;;;2.97;;
71236;SDS011;58984;51.960;5.582;2023-02-28T08:38:09;4.25;;;3.83;;
71236;SDS011;58984;51.960;5.582;2023-02-28T08:40:35;3.65;;;3.13;;
71236;SDS011;58984;51.960;5.582;2023-02-28T08:43:01;4.22;;;3.00;;
71236;SDS011;58984;51.960;5.582;2023-02-28T08:45:26;4.65;;;3.10;;
71236;SDS011;58984;51.960;5.582;2023-02-28T08:47:53;3.17;;;2.72;;
71236;SDS011;58984;51.960;5.582;2023-02-28T08:50:20;3.35;;;3.03;;
71236;SDS011;58984;51.960;5.582;2023-02-28T08:52:46;3.47;;;2.80;;
71236;SDS011;58984;51.960;5.582;2023-02-28T08:55:11;3.30;;;2.80;;
71236;SDS011;58984;51.960;5.582;2023-02-28T08:57:37;3.70;;;3.25;;
71236;SDS011;58984;51.960;5.582;2023-02-28T09:00:02;3.60;;;2.83;;
71236;SDS011;58984;51.960;5.582;2023-02-28T09:02:29;4.30;;;2.90;;
71236;SDS011;58984;51.960;5.582;2023-02-28T09:04:56;5.63;;;3.17;;
71236;SDS011;58984;51.960;5.582;2023-02-28T09:07:22;5.80;;;3.55;;
71236;SDS011;58984;51.960;5.582;2023-02-28T09:09:48;8.38;;;3.58;;
71236;SDS011;58984;51.960;5.582;2023-02-28T09:12:24;7.10;;;3.55;;
71236;SDS011;58984;51.960;5.582;2023-02-28T09:14:51;3.42;;;3.00;;
71236;SDS011;58984;51.960;5.582;2023-02-28T09:17:16;3.60;;;3.13;;
71236;SDS011;58984;51.960;5.582;2023-02-28T09:19:42;5.35;;;3.50;;
71236;SDS011;58984;51.960;5.582;2023-02-28T09:22:09;4.72;;;3.05;;
71236;SDS011;58984;51.960;5.582;2023-02-28T09:24:38;3.55;;;2.88;;
71236;SDS011;58984;51.960;5.582;2023-02-28T09:27:04;3.53;;;3.15;;
71236;SDS011;58984;51.960;5.582;2023-02-28T09:29:30;3.78;;;3.05;;
71236;SDS011;58984;51.960;5.582;2023-02-28T09:31:56;2.95;;;2.67;;
71236;SDS011;58984;51.960;5.582;2023-02-28T09:34:23;3.30;;;2.78;;
71236;SDS011;58984;51.960;5.582;2023-02-28T09:36:52;5.72;;;2.83;;
71236;SDS011;58984;51.960;5.582;2023-02-28T09:39:19;3.40;;;2.72;;
71236;SDS011;58984;51.960;5.582;2023-02-28T09:41:47;2.92;;;2.20;;
71236;SDS011;58984;51.960;5.582;2023-02-28T09:44:21;3.53;;;2.58;;
71236;SDS011;58984;51.960;5.582;2023-02-28T09:46:54;3.92;;;2.50;;
71236;SDS011;58984;51.960;5.582;2023-02-28T09:49:37;2.88;;;2.53;;
71236;SDS011;58984;51.960;5.582;2023-02-28T09:52:12;2.65;;;2.20;;
71236;SDS011;58984;51.960;5.582;2023-02-28T09:54:41;2.50;;;2.30;;
71236;SDS011;58984;51.960;5.582;2023-02-28T09:57:11;4.43;;;2.20;;
71236;SDS011;58984;51.960;5.582;2023-02-28T09:59:51;3.15;;;2.28;;
71236;SDS011;58984;51.960;5.582;2023-02-28T10:05:05;4.00;;;2.53;;
71236;SDS011;58984;51.960;5.582;2023-02-28T10:08:14;2.08;;;1.90;;
71236;SDS011;58984;51.960;5.582;2023-02-28T10:13:00;2.30;;;2.10;;
71236;SDS011;58984;51.960;5.582;2023-02-28T10:15:30;3.17;;;2.03;;
71236;SDS011;58984;51.960;5.582;2023-02-28T10:18:00;3.40;;;2.33;;
71236;SDS011;58984;51.960;5.582;2023-02-28T10:20:35;2.83;;;2.30;;
71236;SDS011;58984;51.960;5.582;2023-02-28T10:23:13;2.22;;;2.03;;
71236;SDS011;58984;51.960;5.582;2023-02-28T10:25:57;3.28;;;2.20;;
71236;SDS011;58984;51.960;5.582;2023-02-28T10:28:26;3.20;;;2.17;;
71236;SDS011;58984;51.960;5.582;2023-02-28T10:30:54;2.47;;;1.90;;
71236;SDS011;58984;51.960;5.582;2023-02-28T10:33:30;4.90;;;2.17;;
71236;SDS011;58984;51.960;5.582;2023-02-28T10:35:59;7.22;;;2.30;;
71236;SDS011;58984;51.960;5.582;2023-02-28T10:38:27;2.70;;;2.30;;
71236;SDS011;58984;51.960;5.582;2023-02-28T10:41:03;3.30;;;2.33;;
71236;SDS011;58984;51.960;5.582;2023-02-28T10:43:33;4.22;;;2.42;;
71236;SDS011;58984;51.960;5.582;2023-02-28T10:46:18;2.50;;;2.30;;
71236;SDS011;58984;51.960;5.582;2023-02-28T10:49:00;2.33;;;2.10;;
71236;SDS011;58984;51.960;5.582;2023-02-28T10:51:34;2.30;;;2.10;;
71236;SDS011;58984;51.960;5.582;2023-02-28T10:56:27;4.40;;;2.47;;
71236;SDS011;58984;51.960;5.582;2023-02-28T10:59:00;5.40;;;2.85;;
71236;SDS011;58984;51.960;5.582;2023-02-28T11:01:45;4.82;;;2.30;;
71236;SDS011;58984;51.960;5.582;2023-02-28T11:04:31;2.55;;;2.10;;
71236;SDS011;58984;51.960;5.582;2023-02-28T11:07:05;2.30;;;2.10;;
71236;SDS011;58984;51.960;5.582;2023-02-28T11:09:57;2.80;;;2.13;;
71236;SDS011;58984;51.960;5.582;2023-02-28T11:15:07;2.85;;;2.08;;
71236;SDS011;58984;51.960;5.582;2023-02-28T11:17:54;3.58;;;2.30;;
71236;SDS011;58984;51.960;5.582;2023-02-28T11:20:22;2.65;;;1.92;;
71236;SDS011;58984;51.960;5.582;2023-02-28T11:22:49;4.28;;;2.53;;
71236;SDS011;58984;51.960;5.582;2023-02-28T11:25:26;2.10;;;1.90;;
71236;SDS011;58984;51.960;5.582;2023-02-28T11:28:00;4.45;;;2.30;;
71236;SDS011;58984;51.960;5.582;2023-02-28T11:30:49;2.80;;;2.08;;
71236;SDS011;58984;51.960;5.582;2023-02-28T11:33:54;3.00;;;1.88;;
71236;SDS011;58984;51.960;5.582;2023-02-28T11:38:46;2.80;;;2.30;;
71236;SDS011;58984;51.960;5.582;2023-02-28T11:41:21;5.50;;;2.78;;
71236;SDS011;58984;51.960;5.582;2023-02-28T11:46:46;2.28;;;2.03;;
71236;SDS011;58984;51.960;5.582;2023-02-28T11:49:25;3.33;;;2.20;;
71236;SDS011;58984;51.960;5.582;2023-02-28T11:52:18;3.88;;;2.03;;
71236;SDS011;58984;51.960;5.582;2023-02-28T12:00:12;2.13;;;1.73;;
71236;SDS011;58984;51.960;5.582;2023-02-28T12:05:23;3.20;;;2.13;;
71236;SDS011;58984;51.960;5.582;2023-02-28T12:10:29;1.98;;;1.73;;
71236;SDS011;58984;51.960;5.582;2023-02-28T12:13:20;2.30;;;1.98;;
71236;SDS011;58984;51.960;5.582;2023-02-28T12:18:52;2.10;;;1.90;;
71236;SDS011;58984;51.960;5.582;2023-02-28T12:27:05;2.13;;;1.92;;
71236;SDS011;58984;51.960;5.582;2023-02-28T12:32:18;3.60;;;2.55;;
71236;SDS011;58984;51.960;5.582;2023-02-28T12:35:13;1.60;;;1.50;;
71236;SDS011;58984;51.960;5.582;2023-02-28T12:40:40;4.95;;;2.20;;
71236;SDS011;58984;51.960;5.582;2023-02-28T12:43:16;3.70;;;2.33;;
71236;SDS011;58984;51.960;5.582;2023-02-28T12:45:48;4.13;;;2.15;;
71236;SDS011;58984;51.960;5.582;2023-02-28T12:48:21;2.60;;;2.10;;
71236;SDS011;58984;51.960;5.582;2023-02-28T12:50:52;2.63;;;1.90;;
71236;SDS011;58984;51.960;5.582;2023-02-28T12:58:27;5.90;;;2.80;;
71236;SDS011;58984;51.960;5.582;2023-02-28T13:01:06;4.15;;;2.00;;
71236;SDS011;58984;51.960;5.582;2023-02-28T13:09:50;2.67;;;2.17;;
71236;SDS011;58984;51.960;5.582;2023-02-28T13:12:21;3.38;;;2.00;;
71236;SDS011;58984;51.960;5.582;2023-02-28T13:14:48;2.30;;;2.10;;
71236;SDS011;58984;51.960;5.582;2023-02-28T13:17:18;3.35;;;2.10;;
71236;SDS011;58984;51.960;5.582;2023-02-28T13:19:56;2.80;;;2.17;;
71236;SDS011;58984;51.960;5.582;2023-02-28T13:28:10;3.35;;;2.30;;
71236;SDS011;58984;51.960;5.582;2023-02-28T13:36:26;5.43;;;2.20;;
71236;SDS011;58984;51.960;5.582;2023-02-28T13:38:55;3.78;;;2.40;;
71236;SDS011;58984;51.960;5.582;2023-02-28T13:44:02;2.80;;;2.53;;
71236;SDS011;58984;51.960;5.582;2023-02-28T13:47:23;3.58;;;2.30;;
71236;SDS011;58984;51.960;5.582;2023-02-28T13:57:25;3.60;;;2.22;;
71236;SDS011;58984;51.960;5.582;2023-02-28T14:06:09;2.30;;;2.00;;
71236;SDS011;58984;51.960;5.582;2023-02-28T14:08:57;2.47;;;2.15;;
71236;SDS011;58984;51.960;5.582;2023-02-28T14:14:00;3.60;;;2.40;;
71236;SDS011;58984;51.960;5.582;2023-02-28T14:16:27;2.40;;;2.17;;
71236;SDS011;58984;51.960;5.582;2023-02-28T14:29:53;3.95;;;2.22;;
71236;SDS011;58984;51.960;5.582;2023-02-28T14:35:35;4.28;;;2.28;;
71236;SDS011;58984;51.960;5.582;2023-02-28T14:38:17;2.22;;;1.98;;
71236;SDS011;58984;51.960;5.582;2023-02-28T14:40:46;3.03;;;2.03;;
71236;SDS011;58984;51.960;5.582;2023-02-28T14:43:26;3.95;;;2.53;;
71236;SDS011;58984;51.960;5.582;2023-02-28T14:45:57;2.60;;;2.40;;
71236;SDS011;58984;51.960;5.582;2023-02-28T14:48:24;6.32;;;2.45;;
71236;SDS011;58984;51.960;5.582;2023-02-28T14:50:52;2.30;;;2.10;;
71236;SDS011;58984;51.960;5.582;2023-02-28T14:53:21;2.88;;;2.35;;
71236;SDS011;58984;51.960;5.582;2023-02-28T14:55:48;2.30;;;2.10;;
71236;SDS011;58984;51.960;5.582;2023-02-28T14:58:33;3.70;;;2.42;;
71236;SDS011;58984;51.960;5.582;2023-02-28T15:01:02;3.08;;;2.50;;
71236;SDS011;58984;51.960;5.582;2023-02-28T15:06:00;5.10;;;2.45;;
71236;SDS011;58984;51.960;5.582;2023-02-28T15:08:28;3.72;;;2.67;;
71236;SDS011;58984;51.960;5.582;2023-02-28T15:11:01;3.15;;;2.42;;
71236;SDS011;58984;51.960;5.582;2023-02-28T15:13:52;6.53;;;2.85;;
71236;SDS011;58984;51.960;5.582;2023-02-28T15:16:17;7.00;;;2.80;;
71236;SDS011;58984;51.960;5.582;2023-02-28T15:21:20;6.75;;;3.08;;
71236;SDS011;58984;51.960;5.582;2023-02-28T15:23:49;7.00;;;3.25;;
71236;SDS011;58984;51.960;5.582;2023-02-28T15:26:39;5.00;;;3.08;;
71236;SDS011;58984;51.960;5.582;2023-02-28T15:29:08;6.65;;;2.75;;
71236;SDS011;58984;51.960;5.582;2023-02-28T15:31:49;5.43;;;2.83;;
71236;SDS011;58984;51.960;5.582;2023-02-28T15:34:38;4.60;;;3.00;;
71236;SDS011;58984;51.960;5.582;2023-02-28T15:37:06;3.22;;;2.70;;
71236;SDS011;58984;51.960;5.582;2023-02-28T15:40:05;4.90;;;2.75;;
71236;SDS011;58984;51.960;5.582;2023-02-28T15:42:40;4.70;;;2.53;;
71236;SDS011;58984;51.960;5.582;2023-02-28T15:45:26;3.88;;;2.70;;
71236;SDS011;58984;51.960;5.582;2023-02-28T15:47:53;4.13;;;2.70;;
71236;SDS011;58984;51.960;5.582;2023-02-28T15:50:19;5.00;;;2.60;;
71236;SDS011;58984;51.960;5.582;2023-02-28T15:52:44;7.47;;;2.70;;
71236;SDS011;58984;51.960;5.582;2023-02-28T15:55:21;5.43;;;2.70;;
71236;SDS011;58984;51.960;5.582;2023-02-28T15:57:53;3.60;;;2.37;;
71236;SDS011;58984;51.960;5.582;2023-02-28T16:00:24;2.58;;;2.38;;
71236;SDS011;58984;51.960;5.582;2023-02-28T16:02:51;3.75;;;2.40;;
71236;SDS011;58984;51.960;5.582;2023-02-28T16:05:19;19.80;;;4.63;;
71236;SDS011;58984;51.960;5.582;2023-02-28T16:07:46;18.52;;;4.45;;
71236;SDS011;58984;51.960;5.582;2023-02-28T16:10:13;12.57;;;3.50;;
71236;SDS011;58984;51.960;5.582;2023-02-28T16:12:39;11.25;;;4.03;;
71236;SDS011;58984;51.960;5.582;2023-02-28T16:15:07;12.05;;;3.65;;
71236;SDS011;58984;51.960;5.582;2023-02-28T16:17:42;11.15;;;4.28;;
71236;SDS011;58984;51.960;5.582;2023-02-28T16:20:14;11.35;;;3.60;;
71236;SDS011;58984;51.960;5.582;2023-02-28T16:22:42;16.23;;;4.82;;
71236;SDS011;58984;51.960;5.582;2023-02-28T16:25:10;10.48;;;4.15;;
71236;SDS011;58984;51.960;5.582;2023-02-28T16:27:40;9.70;;;4.00;;
71236;SDS011;58984;51.960;5.582;2023-02-28T16:30:14;11.05;;;4.35;;
71236;SDS011;58984;51.960;5.582;2023-02-28T16:32:45;11.55;;;4.47;;
71236;SDS011;58984;51.960;5.582;2023-02-28T16:35:11;16.98;;;4.82;;
71236;SDS011;58984;51.960;5.582;2023-02-28T16:37:38;20.50;;;5.00;;
71236;SDS011;58984;51.960;5.582;2023-02-28T16:40:04;23.30;;;5.38;;
71236;SDS011;58984;51.960;5.582;2023-02-28T16:42:31;27.05;;;5.50;;
71236;SDS011;58984;51.960;5.582;2023-02-28T16:44:57;24.35;;;6.68;;
71236;SDS011;58984;51.960;5.582;2023-02-28T16:47:23;24.90;;;5.85;;
71236;SDS011;58984;51.960;5.582;2023-02-28T16:49:51;22.52;;;6.13;;
71236;SDS011;58984;51.960;5.582;2023-02-28T16:52:17;15.07;;;5.07;;
71236;SDS011;58984;51.960;5.582;2023-02-28T16:54:43;11.20;;;5.15;;
71236;SDS011;58984;51.960;5.582;2023-02-28T16:57:17;17.17;;;5.10;;
71236;SDS011;58984;51.960;5.582;2023-02-28T16:59:48;17.95;;;5.43;;
71236;SDS011;58984;51.960;5.582;2023-02-28T17:02:15;10.07;;;4.35;;
71236;SDS011;58984;51.960;5.582;2023-02-28T17:04:44;12.77;;;4.50;;
71236;SDS011;58984;51.960;5.582;2023-02-28T17:07:13;10.05;;;4.45;;
71236;SDS011;58984;51.960;5.582;2023-02-28T17:09:41;7.30;;;3.50;;
71236;SDS011;58984;51.960;5.582;2023-02-28T17:12:07;8.45;;;4.22;;
71236;SDS011;58984;51.960;5.582;2023-02-28T17:14:34;5.95;;;3.65;;
71236;SDS011;58984;51.960;5.582;2023-02-28T17:16:59;5.75;;;3.38;;